Airfield :
LOGIN :

Register | Disclaimer

   EN    FR    IT 

 










Legend :    VFR   Marginal VFR   IFR   Intensive IFR   Very Intensive IFR
Visi :
Ceiling :
>= 8 km
>= 3000ft
5 to 8 km
1000 to 3000 ft
1500m to 5 km
500 to 1000 ft
800 to 1500m
200 to 500 ft
< 800m
< 200 ft
Symbols :   Thunderstorms  Fog  Heavy snow  Heavy precipitations  Wind > 20 kt
SIGMETs :     Misc.  Thunderstorms  Icing  Turbulence  Mountain Waves  Volcanic Ashes






- Airport Elevation : 2265 ft
- IATA code : CZL


DABC - Mohamed Boudiaf Int. Constantine

CURRENT METAR :
  • 061430Z 22003KT 180V240 9999 FEW026 17/04 Q1022

EXPIRED METARs :
  • 061400Z VRB02KT 9999 FEW026 SCT200 17/04 Q1022
  • 061330Z VRB02KT 9999 FEW026 SCT200 17/04 Q1023
  • 061300Z 24003KT 200V360 9999 FEW026 SCT200 17/04 Q1023
  • 061230Z 18004KT 090V250 CAVOK 16/06 Q1023
  • 061200Z VRB01KT CAVOK 15/06 Q1024

TAF TAF DABC
Valid from the 06 at 12:00 until the 07 at 12:00 UTC


061100Z 0612/0712 29010KT 9999 FEW026 SCT090
BECMG 0620/0622 VRB02KT
PROB30
TEMPO 0700/0708 3000 BR SCT008
BECMG 0709/0711 28010KT



MET'MAP, your aeronautical weather chart ! - Copyright ORBIFLY December 2007 - Disclaimer

ORBIFLY MET'MAP TEAM :

Programming & Development : Alexandra Zaïnal
Concept & original design : Baudouin d'Aumeries
Assistance for programming : Marc-Olivier Méhu
Technical & hardware support : Manuel Goepfert

Contact : metmap@orbifly.com




SOURCES & CREDITS :

   NOAA